Impacts METAR Board
IDs:

KTOI - Troy Muni, AL, US

Updated at: 0500 UTC 18 Oct 2018
Potential Impact None Slight Moderate High
Time 17/17Z 17/18Z 17/19Z 17/20Z 17/21Z 17/22Z 17/23Z 18/00Z 18/01Z 18/02Z 18/03Z 18/04Z 18/05Z
Temp76 78 80 78 78 79 75 72 70 69 68 66 64
Dewpt68 68 68 68 67 67 67 66 66 64 62 56 52
Altim30.23 30.20 30.18 30.18 30.18 30.18 30.19 30.22 30.23 30.25 30.26 30.27 30.27
VIS10 10 10 10 10 10 10 10 10 10 10 10 10
CIG16 34 -- 27 29 -- -- -- -- -- -- -- --
CoverOVCOVCFEWOVCOVCFEWCLRCLRCLRCLRCLRCLRCLR
FltCatMVFRVFRVFRMVFRMVFRVFRVFRVFRVFRVFRVFRVFRVFR
WX--------------------------
WDir10020350360340350350350360202020
WSpd9 5 5 11 9 5 6 5 6 9 8 6 6
WGst-- -- -- -- -- -- -- -- -- -- -- -- --
Raw hourly METARs
KTOI 171653Z AUTO 01009KT 10SM OVC016 24/20 A3023 RMK AO2 SLP230 T02440200
KTOI 171753Z AUTO VRB05KT 10SM SCT021 OVC034 26/20 A3020 RMK AO2 SLP222 T02560200 10256 20217 58002
KTOI 171853Z AUTO 02005KT 10SM FEW026 27/20 A3018 RMK AO2 SLP215 T02670200
KTOI 171953Z AUTO 35011KT 10SM OVC027 26/20 A3018 RMK AO2 SLP215 T02560200
KTOI 172053Z AUTO 36009KT 10SM OVC029 26/19 A3018 RMK AO2 SLP215 T02560194 55007
KTOI 172153Z AUTO 34005KT 10SM FEW031 26/19 A3018 RMK AO2 SLP216 T02610194
KTOI 172253Z AUTO 35006KT 10SM CLR 24/19 A3019 RMK AO2 SLP220 T02390194
KTOI 172353Z AUTO 35005KT 10SM CLR 22/19 A3022 RMK AO2 SLP228 T02220189 10272 20222 53012
KTOI 180053Z AUTO 35006KT 10SM CLR 21/19 A3023 RMK AO2 SLP233 T02110189
KTOI 180153Z AUTO 36009KT 10SM CLR 21/18 A3025 RMK AO2 SLP240 T02060178
KTOI 180253Z AUTO 02008KT 10SM CLR 20/17 A3026 RMK AO2 SLP244 T02000167 51016
KTOI 180353Z AUTO 02006KT 10SM CLR 19/13 A3027 RMK AO2 SLP247 T01890133
KTOI 180453Z AUTO 02006KT 10SM CLR 18/11 A3027 RMK AO2 SLP246 T01780111



Page loaded:  05:28 UTC  |   10:28 PM Pacific  |   11:28 PM Mountain  |   12:28 AM Central  |   01:28 AM Eastern

 

ADVISORIES

FORECASTS

FORECASTS

OBSERVATIONS

USER TOOLS

ABOUT US